Swinomish — WC5223 — position and weather

sailwx.info

Track history (hours):
 
Tides and Currents Weather Stations Pressure Air Temp Water Temp Dewpoint Dewpoint Depression Visibility Wind Speed Wind Dir Waves Ship Positions

Swinomish

Owner: DUNLAP TOWING CO, LA CONNER, WA. More information available from US FCC via Universal Licensing System and Coast Guard Vessel Documentation Center.

Last reported at 2016-Dec-06 11:33 UTC. Time now 2016-Dec-06 12:13 UTC.
Position N 48°37' W 122°50'.

Length 15 m; draft 3.5 m.

Type: Tug. MMSI: 366972050.

Date/timePositionNaut miles runAvg speedWind from/ knotsBaromVisibWave heightAir tempDewpointWater temp
2016-Dec-06 11:33N 48°37' W 122°50'0 0.0
2016-Dec-06 10:30N 48°37' W 122°50'0 0.0
2016-Dec-06 09:31N 48°37' W 122°50'0 0.0
2016-Dec-06 08:32N 48°37' W 122°50'0 0.0
2016-Dec-06 07:33N 48°37' W 122°50'0 0.0
2016-Dec-06 06:33N 48°37' W 122°50'0 0.0
2016-Dec-06 05:33N 48°37' W 122°50'0 0.0
2016-Dec-06 04:33N 48°37' W 122°50'0 0.0
2016-Dec-06 03:33N 48°37' W 122°50'1 1.3
2016-Dec-06 02:32N 48°35' W 122°50'1 1.5
2016-Dec-06 01:33N 48°34' W 122°50'2 1.6
2016-Dec-06 00:25N 48°32' W 122°50'1 0.5
2016-Dec-05 22:33N 48°31' W 122°51'0 0.0
2016-Dec-05 18:23N 48°31' W 122°51'0 0.0
2016-Dec-05 17:30N 48°31' W 122°51'0 0.0
2016-Dec-05 16:29N 48°31' W 122°51'0 0.0
2016-Dec-05 15:33N 48°31' W 122°51'0 0.0
2016-Dec-05 14:29N 48°31' W 122°51'0 0.0
2016-Dec-05 13:29N 48°31' W 122°51'0 0.0
2016-Dec-05 12:33N 48°31' W 122°51'0 0.0
2016-Dec-05 11:33N 48°31' W 122°51'0 0.0
2016-Dec-05 10:32N 48°31' W 122°51'0 0.1
2016-Dec-05 09:33N 48°31' W 122°51'0 0.0
2016-Dec-04 17:29N 48°31' W 122°51'0 0.0
2016-Dec-04 16:28N 48°31' W 122°51'0 0.0
2016-Dec-04 15:28N 48°31' W 122°51'0 0.0
2016-Dec-04 14:27N 48°31' W 122°51'0 0.0
2016-Dec-04 13:33N 48°31' W 122°51'0 0.0
2016-Dec-04 12:34N 48°31' W 122°51'0 0.0
2016-Dec-04 11:33N 48°31' W 122°51'0 0.0
2016-Dec-04 10:33N 48°31' W 122°51'0 0.0
2016-Dec-04 09:34N 48°31' W 122°51'0 0.0
2016-Dec-04 08:22N 48°31' W 122°51'0 0.0
2016-Dec-04 07:23N 48°31' W 122°51'0 0.0
2016-Dec-04 05:21N 48°31' W 122°51'0 0.0
2016-Dec-04 04:22N 48°31' W 122°51'0 0.0
2016-Dec-04 02:19N 48°31' W 122°51'0 0.0
2016-Dec-04 01:29N 48°31' W 122°51'0 0.0
2016-Dec-04 00:33N 48°31' W 122°51'0 0.0
2016-Dec-03 21:32N 48°31' W 122°51'0 0.0
2016-Dec-03 15:14N 48°31' W 122°51'0 0.0
2016-Dec-03 14:32N 48°31' W 122°51'0 0.0
2016-Dec-03 13:10N 48°31' W 122°51'0 0.0
2016-Dec-03 12:27N 48°31' W 122°51'0 0.0
2016-Dec-03 11:32N 48°31' W 122°51'0 0.0
2016-Dec-03 10:32N 48°31' W 122°51'0 0.0
2016-Dec-03 09:33N 48°31' W 122°51'0 0.0
2016-Dec-03 08:29N 48°31' W 122°51'0 0.0
2016-Dec-03 07:33N 48°31' W 122°51'0 0.0
2016-Dec-03 06:31N 48°31' W 122°51'0 0.0
2016-Dec-03 05:25N 48°31' W 122°51'0 0.0
2016-Dec-03 04:32N 48°31' W 122°51'0 0.0
2016-Dec-03 03:22N 48°31' W 122°51'0 0.0
2016-Dec-03 02:32N 48°31' W 122°51'0 0.0
2016-Dec-03 01:30N 48°31' W 122°51'0 0.0
2016-Dec-03 00:15N 48°31' W 122°51'0 0.0
2016-Dec-02 23:33N 48°31' W 122°51'0 0.0
2016-Dec-02 22:33N 48°31' W 122°51'0 0.0
2016-Dec-02 21:23N 48°31' W 122°51'0 0.0
2016-Dec-02 18:20N 48°31' W 122°51'0 0.0
2016-Dec-02 16:29N 48°31' W 122°51'0 0.0
2016-Dec-02 15:13N 48°31' W 122°51'0 0.1
2016-Dec-02 14:33N 48°31' W 122°51'0 0.0
2016-Dec-02 13:20N 48°31' W 122°51'0 0.0
2016-Dec-02 12:30N 48°31' W 122°51'0 0.0
2016-Dec-02 11:34N 48°31' W 122°51'0 0.0
2016-Dec-02 08:23N 48°31' W 122°51'0 0.0
2016-Dec-02 06:32N 48°31' W 122°51'0 0.0
2016-Dec-02 00:33N 48°31' W 122°51'1 1.0
2016-Dec-01 23:33N 48°32' W 122°50'1 1.4
2016-Dec-01 22:32N 48°32' W 122°47'0 0.5
2016-Dec-01 21:32N 48°32' W 122°48'1 0.9
2016-Dec-01 20:33N 48°32' W 122°50'1 0.9
2016-Dec-01 19:33N 48°33' W 122°50'2 1.7
2016-Dec-01 18:30N 48°34' W 122°52'5 1.7
2016-Dec-01 15:23N 48°36' W 122°59'1 0.6
2016-Dec-01 13:33N 48°36' W 123°00'0 0.0
2016-Dec-01 12:34N 48°36' W 123°00'0 0.0
2016-Dec-01 11:34N 48°36' W 123°00'0 0.0
2016-Dec-01 10:34N 48°36' W 123°00'0 0.0
2016-Dec-01 09:33N 48°36' W 123°00'0 0.0
2016-Dec-01 08:33N 48°36' W 123°00'0 0.0
2016-Dec-01 07:34N 48°36' W 123°00'0 0.0
2016-Dec-01 06:33N 48°36' W 123°00'0 0.0
2016-Dec-01 05:33N 48°36' W 123°00'0 0.0
2016-Dec-01 04:33N 48°36' W 123°00'0 0.0
2016-Dec-01 03:33N 48°36' W 123°00'0 0.0
2016-Dec-01 02:33N 48°36' W 123°00'0 0.0
2016-Dec-01 01:34N 48°36' W 123°00'0 0.0
2016-Dec-01 00:32N 48°36' W 123°00'0 0.1
2016-Nov-30 23:34N 48°36' W 123°00'1010.0
2016-Nov-30 22:33N 48°32' W 122°47'1010.1
2016-Nov-30 21:33N 48°29' W 122°32'6 5.5
2016-Nov-30 20:33N 48°24' W 122°30'0 0.0
2016-Nov-30 19:33N 48°24' W 122°30'0 0.0
2016-Nov-30 18:26N 48°24' W 122°30'0 0.0
2016-Nov-30 17:30N 48°24' W 122°30'0 0.0
2016-Nov-30 16:19N 48°24' W 122°30'0 0.0
2016-Nov-30 15:33N 48°24' W 122°30'0 0.0
2016-Nov-30 14:33N 48°24' W 122°30'0 0.0
2016-Nov-30 13:33N 48°24' W 122°30'0 0.0
2016-Nov-30 12:33N 48°24' W 122°30'0 0.0
2016-Nov-30 09:30N 48°24' W 122°30'0 0.0
2016-Nov-30 08:30N 48°24' W 122°30'0 0.0
2016-Nov-30 07:34N 48°24' W 122°30'0 0.0
2016-Nov-30 06:21N 48°24' W 122°30'0 0.0
2016-Nov-30 05:33N 48°24' W 122°30'0 0.0
2016-Nov-30 04:31N 48°24' W 122°30'0 0.0
2016-Nov-30 03:33N 48°24' W 122°30'0 0.0
2016-Nov-30 02:33N 48°24' W 122°30'0 0.0
2016-Nov-30 01:33N 48°24' W 122°30'0 0.0
2016-Nov-30 00:19N 48°24' W 122°30'0 0.0
2016-Nov-29 23:20N 48°24' W 122°30'0 0.0
2016-Nov-29 22:06N 48°24' W 122°30'0 0.0
2016-Nov-29 21:27N 48°24' W 122°30'0 0.0
2016-Nov-29 20:33N 48°24' W 122°30'0 0.0
2016-Nov-29 19:33N 48°24' W 122°30'0 0.0
2016-Nov-29 18:33N 48°24' W 122°30'0 0.0
2016-Nov-29 17:30N 48°24' W 122°30'0 0.0
2016-Nov-29 16:31N 48°24' W 122°30'0 0.0
2016-Nov-29 15:04N 48°24' W 122°30'0 0.1
2016-Nov-29 14:33N 48°24' W 122°30'0 0.0
2016-Nov-29 13:31N 48°24' W 122°30'0 0.0
2016-Nov-29 12:30N 48°24' W 122°30'0 0.0
2016-Nov-29 11:33N 48°24' W 122°30'0 0.0
2016-Nov-29 10:33N 48°24' W 122°30'0 0.0
2016-Nov-29 09:33N 48°24' W 122°30'0 0.0
2016-Nov-29 08:33N 48°24' W 122°30'0 0.0
2016-Nov-29 07:16N 48°24' W 122°30'0 0.0
2016-Nov-29 06:30N 48°24' W 122°30'0 0.0
2016-Nov-29 05:16N 48°24' W 122°30'0 0.0
2016-Nov-29 04:33N 48°24' W 122°30'0 0.0
2016-Nov-29 03:32N 48°24' W 122°30'0 0.0
2016-Nov-29 02:31N 48°24' W 122°30'0 0.0
2016-Nov-29 01:32N 48°24' W 122°30'0 0.0
2016-Nov-29 00:32N 48°24' W 122°30'0 0.0
2016-Nov-28 23:28N 48°24' W 122°30'0 0.0
2016-Nov-28 22:32N 48°24' W 122°30'0 0.0
2016-Nov-28 21:31N 48°24' W 122°30'0 0.0
2016-Nov-28 20:33N 48°24' W 122°30'0 0.0
2016-Nov-28 19:33N 48°24' W 122°30'0 0.0
2016-Nov-28 18:33N 48°24' W 122°30'0 0.0
2016-Nov-28 17:28N 48°24' W 122°30'0 0.0
2016-Nov-28 16:23N 48°24' W 122°30'0 0.0
2016-Nov-28 15:33N 48°24' W 122°30'0 0.0
2016-Nov-28 14:33N 48°24' W 122°30'0 0.0
2016-Nov-28 13:33N 48°24' W 122°30'0 0.0
2016-Nov-28 12:33N 48°24' W 122°30'0 0.0
2016-Nov-28 11:33N 48°24' W 122°30'0 0.0
2016-Nov-28 10:33N 48°24' W 122°30'0 0.0
2016-Nov-28 09:33N 48°24' W 122°30'0 0.0
2016-Nov-28 08:32N 48°24' W 122°30'0 0.0
2016-Nov-28 07:32N 48°24' W 122°30'0 0.0
2016-Nov-28 06:33N 48°24' W 122°30'0 0.0
2016-Nov-28 05:28N 48°24' W 122°30'0 0.0
2016-Nov-28 04:29N 48°24' W 122°30'0 0.0
2016-Nov-28 03:33N 48°24' W 122°30'0 0.0
2016-Nov-28 02:13N 48°24' W 122°30'0 0.0
2016-Nov-28 01:33N 48°24' W 122°30'0 0.0
2016-Nov-27 23:28N 48°24' W 122°30'0 0.0
2016-Nov-27 21:32N 48°24' W 122°30'0 0.0
2016-Nov-27 20:32N 48°24' W 122°30'0 0.0
2016-Nov-27 19:33N 48°24' W 122°30'0 0.0
2016-Nov-27 18:32N 48°24' W 122°30'0 0.0
2016-Nov-27 17:32N 48°24' W 122°30'0 0.0
2016-Nov-27 16:33N 48°24' W 122°30'0 0.0
2016-Nov-27 15:33N 48°24' W 122°30'0 0.0
2016-Nov-27 14:33N 48°24' W 122°30'0 0.0
2016-Nov-27 13:33N 48°24' W 122°30'0 0.0
2016-Nov-27 12:33N 48°24' W 122°30'0 0.0
2016-Nov-27 11:33N 48°24' W 122°30'0 0.0
2016-Nov-27 10:33N 48°24' W 122°30'0 0.0
2016-Nov-27 09:33N 48°24' W 122°30'0 0.0
2016-Nov-27 08:33N 48°24' W 122°30'0 0.0
2016-Nov-27 07:33N 48°24' W 122°30'0 0.0
2016-Nov-27 06:32N 48°24' W 122°30'0 0.0
2016-Nov-27 05:33N 48°24' W 122°30'0 0.0
2016-Nov-27 04:33N 48°24' W 122°30'0 0.0
2016-Nov-27 03:33N 48°24' W 122°30'0 0.0
2016-Nov-27 02:33N 48°24' W 122°30'0 0.0
2016-Nov-27 01:33N 48°24' W 122°30'0 0.0
2016-Nov-27 00:30N 48°24' W 122°30'0 0.0
2016-Nov-26 23:32N 48°24' W 122°30'0 0.0
2016-Nov-26 22:33N 48°24' W 122°30'0 0.0
2016-Nov-26 21:33N 48°24' W 122°30'0 0.0
2016-Nov-26 20:33N 48°24' W 122°30'0 0.0
2016-Nov-26 19:33N 48°24' W 122°30'0 0.0
2016-Nov-26 18:33N 48°24' W 122°30'0 0.0
2016-Nov-26 17:32N 48°24' W 122°30'0 0.0
2016-Nov-26 16:30N 48°24' W 122°30'0 0.0
2016-Nov-26 15:33N 48°24' W 122°30'0 0.0
2016-Nov-26 14:30N 48°24' W 122°30'0 0.0
2016-Nov-26 13:32N 48°24' W 122°30'0 0.0
2016-Nov-26 12:33N 48°24' W 122°30'0 0.0
2016-Nov-26 11:33N 48°24' W 122°30'  
Track history (hours):
 
Tides and Currents Weather Stations Pressure Air Temp Water Temp Dewpoint Dewpoint Depression Visibility Wind Speed Wind Dir Waves Ship Positions

Swinomish

Owner: DUNLAP TOWING CO, LA CONNER, WA. More information available from US FCC via Universal Licensing System and Coast Guard Vessel Documentation Center.

Last reported at 2016-Dec-06 11:33 UTC. Time now 2016-Dec-06 12:13 UTC.
Position N 48°37' W 122°50'.

Length 15 m; draft 3.5 m.

Type: Tug. MMSI: 366972050.

Date/timePositionNaut miles runAvg speedWind from/ knotsBaromVisibWave heightAir tempDewpointWater temp
2016-Dec-06 11:33N 48°37' W 122°50'0 0.0
2016-Dec-06 10:30N 48°37' W 122°50'0 0.0
2016-Dec-06 09:31N 48°37' W 122°50'0 0.0
2016-Dec-06 08:32N 48°37' W 122°50'0 0.0
2016-Dec-06 07:33N 48°37' W 122°50'0 0.0
2016-Dec-06 06:33N 48°37' W 122°50'0 0.0
2016-Dec-06 05:33N 48°37' W 122°50'0 0.0
2016-Dec-06 04:33N 48°37' W 122°50'0 0.0
2016-Dec-06 03:33N 48°37' W 122°50'1 1.3
2016-Dec-06 02:32N 48°35' W 122°50'1 1.5
2016-Dec-06 01:33N 48°34' W 122°50'2 1.6
2016-Dec-06 00:25N 48°32' W 122°50'1 0.5
2016-Dec-05 22:33N 48°31' W 122°51'0 0.0
2016-Dec-05 18:23N 48°31' W 122°51'0 0.0
2016-Dec-05 17:30N 48°31' W 122°51'0 0.0
2016-Dec-05 16:29N 48°31' W 122°51'0 0.0
2016-Dec-05 15:33N 48°31' W 122°51'0 0.0
2016-Dec-05 14:29N 48°31' W 122°51'0 0.0
2016-Dec-05 13:29N 48°31' W 122°51'0 0.0
2016-Dec-05 12:33N 48°31' W 122°51'0 0.0
2016-Dec-05 11:33N 48°31' W 122°51'0 0.0
2016-Dec-05 10:32N 48°31' W 122°51'0 0.1
2016-Dec-05 09:33N 48°31' W 122°51'0 0.0
2016-Dec-04 17:29N 48°31' W 122°51'0 0.0
2016-Dec-04 16:28N 48°31' W 122°51'0 0.0
2016-Dec-04 15:28N 48°31' W 122°51'0 0.0
2016-Dec-04 14:27N 48°31' W 122°51'0 0.0
2016-Dec-04 13:33N 48°31' W 122°51'0 0.0
2016-Dec-04 12:34N 48°31' W 122°51'0 0.0
2016-Dec-04 11:33N 48°31' W 122°51'0 0.0
2016-Dec-04 10:33N 48°31' W 122°51'0 0.0
2016-Dec-04 09:34N 48°31' W 122°51'0 0.0
2016-Dec-04 08:22N 48°31' W 122°51'0 0.0
2016-Dec-04 07:23N 48°31' W 122°51'0 0.0
2016-Dec-04 05:21N 48°31' W 122°51'0 0.0
2016-Dec-04 04:22N 48°31' W 122°51'0 0.0
2016-Dec-04 02:19N 48°31' W 122°51'0 0.0
2016-Dec-04 01:29N 48°31' W 122°51'0 0.0
2016-Dec-04 00:33N 48°31' W 122°51'0 0.0
2016-Dec-03 21:32N 48°31' W 122°51'0 0.0
2016-Dec-03 15:14N 48°31' W 122°51'0 0.0
2016-Dec-03 14:32N 48°31' W 122°51'0 0.0
2016-Dec-03 13:10N 48°31' W 122°51'0 0.0
2016-Dec-03 12:27N 48°31' W 122°51'0 0.0
2016-Dec-03 11:32N 48°31' W 122°51'0 0.0
2016-Dec-03 10:32N 48°31' W 122°51'0 0.0
2016-Dec-03 09:33N 48°31' W 122°51'0 0.0
2016-Dec-03 08:29N 48°31' W 122°51'0 0.0
2016-Dec-03 07:33N 48°31' W 122°51'0 0.0
2016-Dec-03 06:31N 48°31' W 122°51'0 0.0
2016-Dec-03 05:25N 48°31' W 122°51'0 0.0
2016-Dec-03 04:32N 48°31' W 122°51'0 0.0
2016-Dec-03 03:22N 48°31' W 122°51'0 0.0
2016-Dec-03 02:32N 48°31' W 122°51'0 0.0
2016-Dec-03 01:30N 48°31' W 122°51'0 0.0
2016-Dec-03 00:15N 48°31' W 122°51'0 0.0
2016-Dec-02 23:33N 48°31' W 122°51'0 0.0
2016-Dec-02 22:33N 48°31' W 122°51'0 0.0
2016-Dec-02 21:23N 48°31' W 122°51'0 0.0
2016-Dec-02 18:20N 48°31' W 122°51'0 0.0
2016-Dec-02 16:29N 48°31' W 122°51'0 0.0
2016-Dec-02 15:13N 48°31' W 122°51'0 0.1
2016-Dec-02 14:33N 48°31' W 122°51'0 0.0
2016-Dec-02 13:20N 48°31' W 122°51'0 0.0
2016-Dec-02 12:30N 48°31' W 122°51'0 0.0
2016-Dec-02 11:34N 48°31' W 122°51'0 0.0
2016-Dec-02 08:23N 48°31' W 122°51'0 0.0
2016-Dec-02 06:32N 48°31' W 122°51'0 0.0
2016-Dec-02 00:33N 48°31' W 122°51'1 1.0
2016-Dec-01 23:33N 48°32' W 122°50'1 1.4
2016-Dec-01 22:32N 48°32' W 122°47'0 0.5
2016-Dec-01 21:32N 48°32' W 122°48'1 0.9
2016-Dec-01 20:33N 48°32' W 122°50'1 0.9
2016-Dec-01 19:33N 48°33' W 122°50'2 1.7
2016-Dec-01 18:30N 48°34' W 122°52'5 1.7
2016-Dec-01 15:23N 48°36' W 122°59'1 0.6
2016-Dec-01 13:33N 48°36' W 123°00'0 0.0
2016-Dec-01 12:34N 48°36' W 123°00'0 0.0
2016-Dec-01 11:34N 48°36' W 123°00'0 0.0
2016-Dec-01 10:34N 48°36' W 123°00'0 0.0
2016-Dec-01 09:33N 48°36' W 123°00'0 0.0
2016-Dec-01 08:33N 48°36' W 123°00'0 0.0
2016-Dec-01 07:34N 48°36' W 123°00'0 0.0
2016-Dec-01 06:33N 48°36' W 123°00'0 0.0
2016-Dec-01 05:33N 48°36' W 123°00'0 0.0
2016-Dec-01 04:33N 48°36' W 123°00'0 0.0
2016-Dec-01 03:33N 48°36' W 123°00'0 0.0
2016-Dec-01 02:33N 48°36' W 123°00'0 0.0
2016-Dec-01 01:34N 48°36' W 123°00'0 0.0
2016-Dec-01 00:32N 48°36' W 123°00'0 0.1
2016-Nov-30 23:34N 48°36' W 123°00'1010.0
2016-Nov-30 22:33N 48°32' W 122°47'1010.1
2016-Nov-30 21:33N 48°29' W 122°32'6 5.5
2016-Nov-30 20:33N 48°24' W 122°30'0 0.0
2016-Nov-30 19:33N 48°24' W 122°30'0 0.0
2016-Nov-30 18:26N 48°24' W 122°30'0 0.0
2016-Nov-30 17:30N 48°24' W 122°30'0 0.0
2016-Nov-30 16:19N 48°24' W 122°30'0 0.0
2016-Nov-30 15:33N 48°24' W 122°30'0 0.0
2016-Nov-30 14:33N 48°24' W 122°30'0 0.0
2016-Nov-30 13:33N 48°24' W 122°30'0 0.0
2016-Nov-30 12:33N 48°24' W 122°30'0 0.0
2016-Nov-30 09:30N 48°24' W 122°30'0 0.0
2016-Nov-30 08:30N 48°24' W 122°30'0 0.0
2016-Nov-30 07:34N 48°24' W 122°30'0 0.0
2016-Nov-30 06:21N 48°24' W 122°30'0 0.0
2016-Nov-30 05:33N 48°24' W 122°30'0 0.0
2016-Nov-30 04:31N 48°24' W 122°30'0 0.0
2016-Nov-30 03:33N 48°24' W 122°30'0 0.0
2016-Nov-30 02:33N 48°24' W 122°30'0 0.0
2016-Nov-30 01:33N 48°24' W 122°30'0 0.0
2016-Nov-30 00:19N 48°24' W 122°30'0 0.0
2016-Nov-29 23:20N 48°24' W 122°30'0 0.0
2016-Nov-29 22:06N 48°24' W 122°30'0 0.0
2016-Nov-29 21:27N 48°24' W 122°30'0 0.0
2016-Nov-29 20:33N 48°24' W 122°30'0 0.0
2016-Nov-29 19:33N 48°24' W 122°30'0 0.0
2016-Nov-29 18:33N 48°24' W 122°30'0 0.0
2016-Nov-29 17:30N 48°24' W 122°30'0 0.0
2016-Nov-29 16:31N 48°24' W 122°30'0 0.0
2016-Nov-29 15:04N 48°24' W 122°30'0 0.1
2016-Nov-29 14:33N 48°24' W 122°30'0 0.0
2016-Nov-29 13:31N 48°24' W 122°30'0 0.0
2016-Nov-29 12:30N 48°24' W 122°30'0 0.0
2016-Nov-29 11:33N 48°24' W 122°30'0 0.0
2016-Nov-29 10:33N 48°24' W 122°30'0 0.0
2016-Nov-29 09:33N 48°24' W 122°30'0 0.0
2016-Nov-29 08:33N 48°24' W 122°30'0 0.0
2016-Nov-29 07:16N 48°24' W 122°30'0 0.0
2016-Nov-29 06:30N 48°24' W 122°30'0 0.0
2016-Nov-29 05:16N 48°24' W 122°30'0 0.0
2016-Nov-29 04:33N 48°24' W 122°30'0 0.0
2016-Nov-29 03:32N 48°24' W 122°30'0 0.0
2016-Nov-29 02:31N 48°24' W 122°30'0 0.0
2016-Nov-29 01:32N 48°24' W 122°30'0 0.0
2016-Nov-29 00:32N 48°24' W 122°30'0 0.0
2016-Nov-28 23:28N 48°24' W 122°30'0 0.0
2016-Nov-28 22:32N 48°24' W 122°30'0 0.0
2016-Nov-28 21:31N 48°24' W 122°30'0 0.0
2016-Nov-28 20:33N 48°24' W 122°30'0 0.0
2016-Nov-28 19:33N 48°24' W 122°30'0 0.0
2016-Nov-28 18:33N 48°24' W 122°30'0 0.0
2016-Nov-28 17:28N 48°24' W 122°30'0 0.0
2016-Nov-28 16:23N 48°24' W 122°30'0 0.0
2016-Nov-28 15:33N 48°24' W 122°30'0 0.0
2016-Nov-28 14:33N 48°24' W 122°30'0 0.0
2016-Nov-28 13:33N 48°24' W 122°30'0 0.0
2016-Nov-28 12:33N 48°24' W 122°30'0 0.0
2016-Nov-28 11:33N 48°24' W 122°30'0 0.0
2016-Nov-28 10:33N 48°24' W 122°30'0 0.0
2016-Nov-28 09:33N 48°24' W 122°30'0 0.0
2016-Nov-28 08:32N 48°24' W 122°30'0 0.0
2016-Nov-28 07:32N 48°24' W 122°30'0 0.0
2016-Nov-28 06:33N 48°24' W 122°30'0 0.0
2016-Nov-28 05:28N 48°24' W 122°30'0 0.0
2016-Nov-28 04:29N 48°24' W 122°30'0 0.0
2016-Nov-28 03:33N 48°24' W 122°30'0 0.0
2016-Nov-28 02:13N 48°24' W 122°30'0 0.0
2016-Nov-28 01:33N 48°24' W 122°30'0 0.0
2016-Nov-27 23:28N 48°24' W 122°30'0 0.0
2016-Nov-27 21:32N 48°24' W 122°30'0 0.0
2016-Nov-27 20:32N 48°24' W 122°30'0 0.0
2016-Nov-27 19:33N 48°24' W 122°30'0 0.0
2016-Nov-27 18:32N 48°24' W 122°30'0 0.0
2016-Nov-27 17:32N 48°24' W 122°30'0 0.0
2016-Nov-27 16:33N 48°24' W 122°30'0 0.0
2016-Nov-27 15:33N 48°24' W 122°30'0 0.0
2016-Nov-27 14:33N 48°24' W 122°30'0 0.0
2016-Nov-27 13:33N 48°24' W 122°30'0 0.0
2016-Nov-27 12:33N 48°24' W 122°30'0 0.0
2016-Nov-27 11:33N 48°24' W 122°30'0 0.0
2016-Nov-27 10:33N 48°24' W 122°30'0 0.0
2016-Nov-27 09:33N 48°24' W 122°30'0 0.0
2016-Nov-27 08:33N 48°24' W 122°30'0 0.0
2016-Nov-27 07:33N 48°24' W 122°30'0 0.0
2016-Nov-27 06:32N 48°24' W 122°30'0 0.0
2016-Nov-27 05:33N 48°24' W 122°30'0 0.0
2016-Nov-27 04:33N 48°24' W 122°30'0 0.0
2016-Nov-27 03:33N 48°24' W 122°30'0 0.0
2016-Nov-27 02:33N 48°24' W 122°30'0 0.0
2016-Nov-27 01:33N 48°24' W 122°30'0 0.0
2016-Nov-27 00:30N 48°24' W 122°30'0 0.0
2016-Nov-26 23:32N 48°24' W 122°30'0 0.0
2016-Nov-26 22:33N 48°24' W 122°30'0 0.0
2016-Nov-26 21:33N 48°24' W 122°30'0 0.0
2016-Nov-26 20:33N 48°24' W 122°30'0 0.0
2016-Nov-26 19:33N 48°24' W 122°30'0 0.0
2016-Nov-26 18:33N 48°24' W 122°30'0 0.0
2016-Nov-26 17:32N 48°24' W 122°30'0 0.0
2016-Nov-26 16:30N 48°24' W 122°30'0 0.0
2016-Nov-26 15:33N 48°24' W 122°30'0 0.0
2016-Nov-26 14:30N 48°24' W 122°30'0 0.0
2016-Nov-26 13:32N 48°24' W 122°30'0 0.0
2016-Nov-26 12:33N 48°24' W 122°30'0 0.0
2016-Nov-26 11:33N 48°24' W 122°30'  

Dump ship's entire track history